Time;durP1;ratioP1;P1;durP2;ratioP2;P2;SDS_P1;SDS_P2;PMS_P1;PMS_P2;Temp;Humidity;BMP_temperature;BMP_pressure;BME280_temperature;BME280_humidity;BME280_pressure;Samples;Min_cycle;Max_cycle;Signal;HPM_P1;HPM_P2
2022/01/30 00:01:02;;;;;;;;;;;;;;;21.90;19.65;98176.06;4986062;28;952;-77
2022/01/30 00:03:28;;;;;;;;;;;;;;;22.40;19.14;98163.47;5059524;28;1081;-76
2022/01/30 00:05:53;;;;;;;;;;;;;;;22.92;18.67;98162.44;5065803;28;920;-77
2022/01/30 00:08:19;;;;;;;;;;;;;;;22.34;19.05;98163.22;5061701;28;887;-77
2022/01/30 00:10:45;;;;;;;;;;;;;;;22.20;19.31;98147.38;5064808;28;903;-77
2022/01/30 00:13:15;;;;;;;;;;;;;;;22.41;19.19;98153.72;5062083;28;1885;-77
2022/01/30 00:15:48;;;;;;;;;;;;;;;22.61;18.94;98160.03;5064448;28;1059;-77
2022/01/30 00:23:34;;;;;;;;;;;;;;;21.81;19.74;98137.00;5060572;28;965;-77
2022/01/30 00:26:02;;;;;;;;;;;;;;;22.23;19.60;98131.53;5064822;28;870;-77
2022/01/30 00:28:28;;;;;;;;;;;;;;;23.05;18.45;98117.81;5060509;28;911;-77
2022/01/30 00:30:54;;;;;;;;;;;;;;;22.89;18.55;98113.03;5064422;28;945;-78
2022/01/30 00:33:19;;;;;;;;;;;;;;;21.29;20.03;98118.81;5059449;28;1894;-77
2022/01/30 00:35:48;;;;;;;;;;;;;;;21.15;20.52;98113.53;5046928;28;1227;-76
2022/01/30 00:38:19;;;;;;;;;;;;;;;22.14;19.44;98103.81;5058326;28;1071;-77
2022/01/30 00:40:47;;;;;;;;;;;;;;;22.14;19.09;98100.19;5061928;28;1328;-77
2022/01/30 00:43:12;;;;;;;;;;;;;;;21.59;19.99;98097.13;5018894;28;985;-77
2022/01/30 00:45:38;;;;;;;;;;;;;;;21.89;19.52;98090.28;5021068;28;1386;-77
2022/01/30 00:48:03;;;;;;;;;;;;;;;22.52;19.06;98097.50;4999313;28;1235;-77
2022/01/30 00:50:29;;;;;;;;;;;;;;;21.67;19.44;98097.75;4936859;28;1173;-76
2022/01/30 00:52:55;;;;;;;;;;;;;;;21.81;19.54;98095.34;4983620;28;1907;-77
2022/01/30 00:55:24;;;;;;;;;;;;;;;22.30;18.91;98103.78;4965338;28;1286;-78
2022/01/30 00:57:50;;;;;;;;;;;;;;;22.26;19.00;98107.94;4962124;29;1149;-78
2022/01/30 01:00:15;;;;;;;;;;;;;;;22.26;19.11;98105.91;4945515;29;939;-76
2022/01/30 01:02:41;;;;;;;;;;;;;;;22.23;19.07;98106.03;4923506;29;1059;-77
2022/01/30 01:05:07;;;;;;;;;;;;;;;22.75;18.61;98097.22;4922117;29;1125;-77
2022/01/30 01:07:34;;;;;;;;;;;;;;;22.62;18.48;98094.34;4923862;29;1312;-77
2022/01/30 01:10:39;;;;;;;;;;;;;;;22.18;19.19;98086.72;4922319;29;1315;-77
2022/01/30 01:23:19;;;;;;;;;;;;;;;22.27;19.12;98061.34;4887514;29;1014;-77
2022/01/30 01:23:45;;;;;;;;;;;;;;;22.18;19.10;98053.50;4864430;29;1237;-77
2022/01/30 01:26:11;;;;;;;;;;;;;;;22.47;18.75;98047.00;4854093;29;1402;-77
2022/01/30 01:28:36;;;;;;;;;;;;;;;22.69;18.74;98045.16;4802725;29;1025;-77
2022/01/30 01:31:02;;;;;;;;;;;;;;;22.95;18.28;98042.34;4799083;30;1050;-77
2022/01/30 01:33:37;;;;;;;;;;;;;;;22.29;18.94;98039.81;4788288;30;1990;-77
2022/01/30 01:36:03;;;;;;;;;;;;;;;22.07;19.33;98007.63;4800812;30;995;-77
2022/01/30 01:38:29;;;;;;;;;;;;;;;22.27;19.38;98013.16;4788686;29;1018;-76
2022/01/30 01:40:55;;;;;;;;;;;;;;;22.31;18.81;98008.97;4799087;30;955;-77
2022/01/30 01:43:22;;;;;;;;;;;;;;;22.08;19.34;98000.75;4835270;29;1004;-77
2022/01/30 01:45:50;;;;;;;;;;;;;;;21.97;19.40;97991.75;4835409;29;1014;-77
2022/01/30 01:48:15;;;;;;;;;;;;;;;21.94;19.33;97982.09;4831794;29;1353;-77
2022/01/30 01:50:51;;;;;;;;;;;;;;;21.03;20.42;97986.88;4868759;29;1136;-76
2022/01/30 01:53:17;;;;;;;;;;;;;;;21.73;19.97;97983.47;4869248;29;1907;-78
2022/01/30 01:55:42;;;;;;;;;;;;;;;21.91;19.53;97980.16;4851992;29;1261;-76
2022/01/30 01:58:15;;;;;;;;;;;;;;;21.38;20.16;97973.91;4850645;29;1159;-77
2022/01/30 02:01:01;;;;;;;;;;;;;;;21.21;20.37;97975.94;4856359;29;1350;-77
2022/01/30 02:03:26;;;;;;;;;;;;;;;21.79;19.50;97978.84;4868333;29;977;-77
2022/01/30 02:05:56;;;;;;;;;;;;;;;21.85;19.62;97974.22;4880089;29;919;-77
2022/01/30 02:08:41;;;;;;;;;;;;;;;21.43;19.96;97964.09;4886992;29;968;-77
2022/01/30 02:26:48;;;;;;;;;;;;;;;21.20;20.31;97953.75;4908438;29;1358;-77
2022/01/30 02:29:14;;;;;;;;;;;;;;;21.41;20.27;97949.59;4906611;29;1465;-77
2022/01/30 02:31:41;;;;;;;;;;;;;;;21.28;20.15;97949.47;4924945;29;1082;-77
2022/01/30 02:34:07;;;;;;;;;;;;;;;21.51;19.94;97945.69;4925343;29;1888;-77
2022/01/30 02:36:32;;;;;;;;;;;;;;;21.03;20.50;97942.41;4927660;29;1018;-77
2022/01/30 02:38:59;;;;;;;;;;;;;;;21.88;19.61;97937.78;4868488;29;1299;-77
2022/01/30 02:41:25;;;;;;;;;;;;;;;21.58;19.96;97942.63;4815997;29;1097;-78
2022/01/30 02:44:15;;;;;;;;;;;;;;;21.55;20.00;97932.19;4813073;29;1233;-77
2022/01/30 02:46:51;;;;;;;;;;;;;;;21.98;19.55;97931.00;4815339;29;1495;-77
2022/01/30 02:51:54;;;;;;;;;;;;;;;22.80;18.43;97917.16;4815478;29;1000;-77
2022/01/30 02:54:19;;;;;;;;;;;;;;;22.19;19.27;97907.72;4816468;29;1919;-77
2022/01/30 02:56:45;;;;;;;;;;;;;;;21.98;19.60;97914.00;4819407;29;1492;-78
2022/01/30 02:59:11;;;;;;;;;;;;;;;22.47;18.93;97911.69;4832257;29;1250;-77
2022/01/30 03:01:36;;;;;;;;;;;;;;;22.70;18.83;97902.06;4815509;29;1206;-77
2022/01/30 03:04:03;;;;;;;;;;;;;;;22.74;18.51;97897.09;4847575;29;1288;-77
2022/01/30 03:06:29;;;;;;;;;;;;;;;22.30;18.87;97891.19;4815535;29;972;-76
2022/01/30 03:08:54;;;;;;;;;;;;;;;22.06;19.56;97889.88;4813590;29;1147;-77
2022/01/30 03:11:20;;;;;;;;;;;;;;;22.44;19.14;97886.31;4833320;29;1429;-77
2022/01/30 03:13:45;;;;;;;;;;;;;;;22.64;18.66;97886.88;4867022;29;1916;-77
2022/01/30 03:16:11;;;;;;;;;;;;;;;22.73;18.79;97884.13;4852947;29;1129;-78
2022/01/30 03:18:37;;;;;;;;;;;;;;;22.32;19.14;97885.84;4832625;29;1043;-77
2022/01/30 03:21:03;;;;;;;;;;;;;;;22.24;19.30;97876.00;4828146;29;1186;-77
2022/01/30 03:23:29;;;;;;;;;;;;;;;22.39;19.09;97878.38;4830858;29;1127;-77
2022/01/30 03:25:58;;;;;;;;;;;;;;;22.75;18.86;97863.84;4823239;29;1148;-77
2022/01/30 03:28:37;;;;;;;;;;;;;;;22.50;18.64;97870.31;4826786;29;1249;-77
2022/01/30 03:31:17;;;;;;;;;;;;;;;22.16;19.51;97868.94;4815091;29;1545;-78
2022/01/30 03:33:45;;;;;;;;;;;;;;;22.25;19.46;97869.06;4777397;29;1912;-77
2022/01/30 03:36:10;;;;;;;;;;;;;;;22.72;18.65;97859.84;4811731;29;1288;-77
2022/01/30 03:38:36;;;;;;;;;;;;;;;22.63;18.83;97862.59;4808841;29;1049;-77
2022/01/30 03:41:02;;;;;;;;;;;;;;;22.31;18.97;97855.91;4793195;29;1373;-77
2022/01/30 03:43:29;;;;;;;;;;;;;;;22.08;19.56;97856.22;4812386;29;1038;-77
2022/01/30 03:45:55;;;;;;;;;;;;;;;22.39;19.14;97852.88;4850007;29;1230;-77
2022/01/30 03:48:20;;;;;;;;;;;;;;;22.92;18.67;97844.66;4813151;29;1049;-77
2022/01/30 03:50:59;;;;;;;;;;;;;;;22.50;19.03;97836.31;4834411;29;1260;-77
2022/01/30 03:53:25;;;;;;;;;;;;;;;22.16;19.40;97839.81;4829715;29;1888;-77
2022/01/30 03:55:50;;;;;;;;;;;;;;;22.39;18.95;97835.84;4834150;29;1093;-77
2022/01/30 03:58:24;;;;;;;;;;;;;;;22.58;18.99;97831.97;4832441;29;1171;-77
2022/01/30 04:00:50;;;;;;;;;;;;;;;22.89;18.32;97832.16;4861998;29;1183;-76
2022/01/30 04:03:15;;;;;;;;;;;;;;;22.43;19.13;97833.69;4883003;29;1117;-77
2022/01/30 04:05:41;;;;;;;;;;;;;;;22.29;19.32;97829.28;4920708;29;1026;-77
2022/01/30 04:08:07;;;;;;;;;;;;;;;22.20;19.20;97835.63;4958844;28;1590;-77
2022/01/30 04:10:38;;;;;;;;;;;;;;;22.14;19.51;97826.09;4964378;29;1126;-77
2022/01/30 04:13:23;;;;;;;;;;;;;;;22.11;19.32;97827.00;4952812;28;1910;-77
2022/01/30 04:16:12;;;;;;;;;;;;;;;21.05;20.72;97826.78;4965122;29;1285;-77
2022/01/30 04:18:57;;;;;;;;;;;;;;;22.07;19.53;97820.63;4941631;29;978;-77
2022/01/30 04:21:43;;;;;;;;;;;;;;;21.85;19.76;97821.28;4894081;29;1032;-77
2022/01/30 04:24:27;;;;;;;;;;;;;;;21.44;20.10;97818.47;4904515;29;1121;-78
2022/01/30 04:27:16;;;;;;;;;;;;;;;21.80;19.61;97816.16;4865556;29;1016;-77
2022/01/30 04:29:41;;;;;;;;;;;;;;;21.79;19.60;97806.09;4830514;29;1039;-77
2022/01/30 04:32:26;;;;;;;;;;;;;;;21.30;20.45;97809.16;4850617;29;960;-77
2022/01/30 04:35:11;;;;;;;;;;;;;;;20.92;20.69;97806.13;4864171;29;1888;-77
2022/01/30 04:38:15;;;;;;;;;;;;;;;21.56;20.00;97800.75;4855652;29;2084;-77
2022/01/30 04:41:10;;;;;;;;;;;;;;;21.28;20.16;97800.28;4869412;29;1111;-76
2022/01/30 04:53:17;;;;;;;;;;;;;;;20.96;20.70;97778.56;4931806;29;1951;-77
2022/01/30 05:01:58;;;;;;;;;;;;;;;21.63;19.88;97780.69;4964133;29;1151;-77
2022/01/30 05:04:53;;;;;;;;;;;;;;;21.19;20.51;97769.03;4960280;28;1731;-77
2022/01/30 05:07:34;;;;;;;;;;;;;;;21.87;19.59;97766.25;4962982;28;1593;-77
2022/01/30 05:10:20;;;;;;;;;;;;;;;22.60;19.00;97759.38;4981488;28;976;-77
2022/01/30 05:13:16;;;;;;;;;;;;;;;22.54;18.85;97758.38;4866012;29;1888;-77
2022/01/30 05:15:49;;;;;;;;;;;;;;;22.46;18.97;97754.19;4823819;29;1759;-77
2022/01/30 05:18:21;;;;;;;;;;;;;;;22.09;19.52;97747.31;4800441;29;1884;-77
2022/01/30 05:21:06;;;;;;;;;;;;;;;22.14;19.49;97752.44;4815639;29;1015;-77
2022/01/30 05:24:04;;;;;;;;;;;;;;;22.64;19.03;97750.75;4774868;30;982;-77
2022/01/30 05:26:53;;;;;;;;;;;;;;;22.74;18.55;97732.56;4742174;30;1108;-77
2022/01/30 05:29:26;;;;;;;;;;;;;;;22.28;19.09;97740.63;4735385;30;1660;-77
2022/01/30 05:32:12;;;;;;;;;;;;;;;22.03;19.61;97729.28;4742463;30;1153;-77
2022/01/30 05:34:54;;;;;;;;;;;;;;;22.45;19.04;97729.13;4744986;30;1987;-78
2022/01/30 05:37:49;;;;;;;;;;;;;;;22.70;18.99;97726.22;4765219;30;1642;-77
2022/01/30 05:40:35;;;;;;;;;;;;;;;22.22;19.21;97713.28;4772101;30;1863;-77
2022/01/30 05:43:19;;;;;;;;;;;;;;;22.09;19.54;97713.31;4757711;30;1016;-77
2022/01/30 05:45:49;;;;;;;;;;;;;;;22.29;19.25;97716.69;4761355;30;931;-77
2022/01/30 05:48:33;;;;;;;;;;;;;;;22.62;18.97;97713.53;4764230;30;1862;-77
2022/01/30 05:51:13;;;;;;;;;;;;;;;22.30;19.30;97708.97;4779209;30;1005;-78
2022/01/30 05:53:51;;;;;;;;;;;;;;;22.15;19.29;97703.00;4775133;30;1980;-77
2022/01/30 05:56:18;;;;;;;;;;;;;;;22.39;19.23;97699.78;4778925;30;1276;-78
2022/01/30 05:58:44;;;;;;;;;;;;;;;22.68;18.89;97694.69;4784671;29;1734;-77
2022/01/30 06:01:28;;;;;;;;;;;;;;;22.77;18.72;97686.25;4814734;29;1043;-77
2022/01/30 06:04:00;;;;;;;;;;;;;;;22.29;19.05;97688.34;4822584;29;1227;-76
2022/01/30 06:06:25;;;;;;;;;;;;;;;22.22;19.32;97682.91;4833072;29;1016;-78
2022/01/30 06:09:18;;;;;;;;;;;;;;;22.49;18.98;97675.94;4821309;29;1652;-77
2022/01/30 06:11:49;;;;;;;;;;;;;;;22.67;18.83;97666.78;4844896;29;1821;-77
2022/01/30 06:14:16;;;;;;;;;;;;;;;22.19;19.25;97658.34;4866526;29;1986;-77
2022/01/30 06:16:42;;;;;;;;;;;;;;;22.01;19.65;97663.78;4837937;29;1147;-77
2022/01/30 06:19:28;;;;;;;;;;;;;;;22.47;18.83;97658.59;4870634;29;1789;-77
2022/01/30 06:22:19;;;;;;;;;;;;;;;22.78;18.60;97653.00;4907729;29;954;-77
2022/01/30 06:25:07;;;;;;;;;;;;;;;22.36;19.01;97656.91;4887771;29;1052;-77
2022/01/30 06:28:05;;;;;;;;;;;;;;;22.18;19.44;97656.75;4887236;29;1758;-77
2022/01/30 06:30:49;;;;;;;;;;;;;;;22.32;19.09;97664.75;4871924;29;1049;-78
2022/01/30 06:33:41;;;;;;;;;;;;;;;22.77;18.90;97657.88;4818406;29;1907;-77
2022/01/30 06:36:25;;;;;;;;;;;;;;;22.54;19.11;97661.19;4799168;30;1051;-77
2022/01/30 06:39:11;;;;;;;;;;;;;;;22.23;19.16;97642.00;4746828;30;1686;-77
2022/01/30 06:41:47;;;;;;;;;;;;;;;22.28;19.51;97638.59;4763082;30;1536;-78
2022/01/30 06:44:37;;;;;;;;;;;;;;;22.66;18.83;97640.47;4796355;29;1017;-78
2022/01/30 06:47:21;;;;;;;;;;;;;;;22.53;19.15;97643.34;4769441;30;905;-78
2022/01/30 06:50:07;;;;;;;;;;;;;;;22.29;19.38;97642.22;4778992;30;1052;-77
2022/01/30 06:53:05;;;;;;;;;;;;;;;22.34;19.27;97648.09;4789472;30;1970;-77
2022/01/30 06:55:34;;;;;;;;;;;;;;;22.96;18.42;97638.19;4790727;29;1681;-77
2022/01/30 06:58:18;;;;;;;;;;;;;;;22.58;18.71;97644.81;4814433;29;1109;-76
2022/01/30 07:01:02;;;;;;;;;;;;;;;22.27;19.37;97637.00;4818517;29;943;-77
2022/01/30 07:03:46;;;;;;;;;;;;;;;22.23;19.60;97642.00;4858912;29;1066;-76
2022/01/30 07:06:23;;;;;;;;;;;;;;;22.58;19.14;97650.47;4860243;29;1983;-77
2022/01/30 07:08:49;;;;;;;;;;;;;;;22.87;18.76;97650.25;4849292;29;1001;-76
2022/01/30 07:11:15;;;;;;;;;;;;;;;22.36;19.39;97656.91;4914238;29;1014;-77
2022/01/30 07:13:41;;;;;;;;;;;;;;;22.12;19.34;97652.91;4924063;29;1903;-77
2022/01/30 07:16:06;;;;;;;;;;;;;;;22.21;19.62;97650.16;4901886;29;1695;-77
2022/01/30 07:18:31;;;;;;;;;;;;;;;22.69;18.95;97635.91;4897363;29;1264;-78
2022/01/30 07:20:59;;;;;;;;;;;;;;;22.80;18.53;97633.50;4951868;29;1372;-77
2022/01/30 07:23:24;;;;;;;;;;;;;;;22.27;19.41;97637.00;4962152;29;1052;-77
2022/01/30 07:25:49;;;;;;;;;;;;;;;22.12;19.42;97633.06;4972934;28;1791;-77
2022/01/30 07:28:15;;;;;;;;;;;;;;;22.43;18.99;97635.22;4988342;28;997;-77
2022/01/30 07:30:40;;;;;;;;;;;;;;;22.93;18.60;97624.94;5003714;28;992;-77
2022/01/30 07:33:06;;;;;;;;;;;;;;;22.41;19.05;97618.69;5001829;28;1907;-78
2022/01/30 07:35:37;;;;;;;;;;;;;;;22.25;19.41;97619.66;5003544;28;1792;-77
2022/01/30 07:38:03;;;;;;;;;;;;;;;22.03;19.41;97616.75;4986838;28;930;-78
2022/01/30 07:40:31;;;;;;;;;;;;;;;22.63;18.75;97618.69;4967805;28;929;-77
2022/01/30 07:42:57;;;;;;;;;;;;;;;22.78;18.88;97610.47;4983744;28;951;-77
2022/01/30 07:45:24;;;;;;;;;;;;;;;22.94;18.76;97609.47;5000352;28;1729;-76
2022/01/30 07:47:49;;;;;;;;;;;;;;;22.87;18.58;97597.13;5037610;28;1052;-77
2022/01/30 07:50:15;;;;;;;;;;;;;;;22.48;19.16;97594.94;5041526;28;1158;-77
2022/01/30 07:52:40;;;;;;;;;;;;;;;22.21;19.54;97592.69;5042476;28;966;-78
2022/01/30 07:55:06;;;;;;;;;;;;;;;22.05;19.56;97590.78;5007546;28;1910;-78
2022/01/30 07:57:31;;;;;;;;;;;;;;;22.57;19.03;97586.53;5003814;28;938;-77
2022/01/30 07:59:57;;;;;;;;;;;;;;;22.84;18.89;97578.19;5019720;28;1697;-78
2022/01/30 08:02:22;;;;;;;;;;;;;;;22.52;18.94;97578.59;5075215;28;1469;-77
2022/01/30 08:04:48;;;;;;;;;;;;;;;22.14;19.28;97575.97;5047568;28;1014;-78
2022/01/30 08:07:13;;;;;;;;;;;;;;;22.24;19.51;97578.41;5065255;28;1695;-77
2022/01/30 08:09:39;;;;;;;;;;;;;;;22.53;19.18;97568.84;5060533;28;998;-78
2022/01/30 08:12:04;;;;;;;;;;;;;;;22.75;18.73;97575.31;5062447;28;1089;-77
2022/01/30 08:14:30;;;;;;;;;;;;;;;22.32;19.37;97570.44;5060193;28;1968;-77
2022/01/30 08:16:55;;;;;;;;;;;;;;;22.04;19.49;97558.06;5076153;28;1833;-77
2022/01/30 08:19:23;;;;;;;;;;;;;;;22.53;19.16;97563.19;5064109;28;1852;-76
2022/01/30 08:21:48;;;;;;;;;;;;;;;22.86;18.75;97553.00;5062711;28;1073;-77
2022/01/30 08:24:14;;;;;;;;;;;;;;;22.45;19.01;97556.22;5062875;28;882;-78
2022/01/30 08:26:40;;;;;;;;;;;;;;;22.04;19.71;97546.72;5076791;28;1547;-77
2022/01/30 08:29:05;;;;;;;;;;;;;;;22.07;19.70;97548.63;5083006;28;918;-77
2022/01/30 08:31:31;;;;;;;;;;;;;;;22.75;19.00;97551.84;5084939;28;1240;-77
2022/01/30 08:33:56;;;;;;;;;;;;;;;23.00;18.65;97563.03;5081767;28;1891;-78
2022/01/30 08:36:21;;;;;;;;;;;;;;;22.55;19.21;97572.03;5075466;28;1678;-77
2022/01/30 08:38:47;;;;;;;;;;;;;;;22.48;18.96;97561.72;5061346;28;884;-76
2022/01/30 08:41:12;;;;;;;;;;;;;;;22.40;19.10;97559.63;5066257;28;903;-78
2022/01/30 08:43:38;;;;;;;;;;;;;;;22.42;19.09;97551.44;5060848;28;923;-77
2022/01/30 08:46:03;;;;;;;;;;;;;;;22.07;19.64;97554.28;5067369;28;1721;-76
2022/01/30 08:48:31;;;;;;;;;;;;;;;22.01;19.76;97547.63;5061821;28;926;-77
2022/01/30 08:50:57;;;;;;;;;;;;;;;21.95;19.82;97547.41;5046857;28;1050;-77
2022/01/30 08:53:22;;;;;;;;;;;;;;;21.21;20.63;97554.31;5074281;28;1976;-78
2022/01/30 08:55:48;;;;;;;;;;;;;;;21.24;20.65;97567.59;5085675;28;1044;-78
2022/01/30 08:58:13;;;;;;;;;;;;;;;21.04;21.01;97567.00;5082203;28;966;-78
2022/01/30 09:00:39;;;;;;;;;;;;;;;21.70;19.79;97570.94;5084882;28;897;-77
2022/01/30 09:03:05;;;;;;;;;;;;;;;21.56;20.03;97574.25;5034924;28;1661;-77
2022/01/30 09:05:31;;;;;;;;;;;;;;;21.05;20.99;97579.91;5043775;28;1151;-76
2022/01/30 09:07:57;;;;;;;;;;;;;;;21.14;20.74;97571.53;5040276;28;968;-77
2022/01/30 09:10:22;;;;;;;;;;;;;;;21.47;20.59;97579.81;5040918;28;933;-77
2022/01/30 09:12:48;;;;;;;;;;;;;;;21.79;20.04;97571.03;5057068;28;2416;-78
2022/01/30 09:15:15;;;;;;;;;;;;;;;21.52;20.28;97571.53;5060026;28;1906;-77
2022/01/30 09:17:41;;;;;;;;;;;;;;;21.18;20.76;97575.03;5044701;28;1695;-78
2022/01/30 09:20:07;;;;;;;;;;;;;;;20.98;20.82;97582.94;5042427;28;1304;-75
2022/01/30 09:22:32;;;;;;;;;;;;;;;21.11;20.48;97578.09;5039871;28;1911;-78
2022/01/30 09:24:58;;;;;;;;;;;;;;;21.41;20.24;97575.97;5027822;28;1430;-77
2022/01/30 09:27:23;;;;;;;;;;;;;;;21.94;19.91;97573.38;5031026;28;1630;-77
2022/01/30 09:29:49;;;;;;;;;;;;;;;21.97;19.91;97572.47;5005681;28;1302;-77
2022/01/30 09:32:14;;;;;;;;;;;;;;;21.91;19.72;97568.63;5038760;28;1962;-77
2022/01/30 09:34:40;;;;;;;;;;;;;;;21.77;19.82;97564.25;5057369;28;1917;-76
2022/01/30 09:37:05;;;;;;;;;;;;;;;21.74;19.65;97580.09;5022090;28;1900;-78
2022/01/30 09:39:31;;;;;;;;;;;;;;;21.93;19.80;97572.59;5035313;28;1676;-78
2022/01/30 09:41:56;;;;;;;;;;;;;;;21.38;20.11;97571.22;5042352;28;1770;-77
2022/01/30 09:44:22;;;;;;;;;;;;;;;21.03;20.42;97568.22;5056444;28;1829;-76
2022/01/30 09:46:47;;;;;;;;;;;;;;;21.70;20.02;97567.31;5042458;28;958;-78
2022/01/30 09:49:13;;;;;;;;;;;;;;;21.68;20.14;97555.66;5056037;28;1012;-77
2022/01/30 09:51:39;;;;;;;;;;;;;;;22.33;19.35;97561.47;5045382;28;997;-77
2022/01/30 09:54:05;;;;;;;;;;;;;;;22.62;18.85;97555.53;5039728;28;1887;-78
2022/01/30 09:56:30;;;;;;;;;;;;;;;22.74;18.91;97545.38;5042618;28;1638;-78
2022/01/30 09:58:56;;;;;;;;;;;;;;;22.31;19.02;97540.50;5007603;28;1756;-77
2022/01/30 10:01:22;;;;;;;;;;;;;;;22.17;19.17;97530.47;5027474;28;910;-77
2022/01/30 10:03:47;;;;;;;;;;;;;;;22.12;19.72;97528.22;5032516;28;1945;-77
2022/01/30 10:06:14;;;;;;;;;;;;;;;22.47;18.88;97525.34;5047547;28;1021;-78
2022/01/30 10:08:43;;;;;;;;;;;;;;;22.85;18.84;97511.72;5043515;28;1060;-77
2022/01/30 10:11:28;;;;;;;;;;;;;;;22.28;19.46;97502.56;5047090;28;941;-77
2022/01/30 10:14:06;;;;;;;;;;;;;;;22.11;19.72;97495.47;5045780;28;2011;-77
2022/01/30 10:16:36;;;;;;;;;;;;;;;22.56;19.18;97482.88;5068953;28;1214;-77
2022/01/30 10:19:12;;;;;;;;;;;;;;;22.99;18.72;97482.00;5062716;28;968;-77
2022/01/30 10:21:38;;;;;;;;;;;;;;;22.36;19.13;97475.50;5024950;28;1049;-77
2022/01/30 10:24:21;;;;;;;;;;;;;;;22.23;19.59;97460.63;4957000;29;1762;-77
2022/01/30 10:26:47;;;;;;;;;;;;;;;22.21;19.47;97451.78;4967759;29;1024;-77
2022/01/30 10:29:18;;;;;;;;;;;;;;;22.65;18.89;97428.25;4964406;29;969;-78
2022/01/30 10:31:59;;;;;;;;;;;;;;;22.74;18.95;97403.56;4967359;29;928;-76
2022/01/30 10:34:26;;;;;;;;;;;;;;;22.36;19.09;97396.13;4926325;29;1910;-77
2022/01/30 10:37:11;;;;;;;;;;;;;;;22.03;19.71;97383.66;4909836;29;1178;-77
2022/01/30 10:39:52;;;;;;;;;;;;;;;22.35;19.49;97366.22;4908225;29;973;-78
2022/01/30 10:42:41;;;;;;;;;;;;;;;22.85;18.92;97361.38;4909914;29;1086;-78
2022/01/30 10:45:07;;;;;;;;;;;;;;;22.27;19.31;97353.56;4870407;29;1694;-77
2022/01/30 10:47:35;;;;;;;;;;;;;;;22.23;19.58;97347.28;4872497;29;1037;-77
2022/01/30 10:50:00;;;;;;;;;;;;;;;22.25;19.45;97335.47;4888134;29;992;-78
2022/01/30 10:52:26;;;;;;;;;;;;;;;22.85;18.65;97327.31;4878714;29;973;-77
2022/01/30 10:54:51;;;;;;;;;;;;;;;22.67;18.96;97321.59;4901206;29;2037;-77
2022/01/30 10:57:17;;;;;;;;;;;;;;;22.22;19.70;97306.00;4909179;29;1809;-77
2022/01/30 10:59:43;;;;;;;;;;;;;;;22.18;19.77;97308.22;4906354;29;1565;-77
2022/01/30 11:02:18;;;;;;;;;;;;;;;22.43;19.35;97303.56;4929040;29;1762;-76
2022/01/30 11:04:44;;;;;;;;;;;;;;;22.60;19.15;97307.72;4929166;29;968;-77
2022/01/30 11:07:10;;;;;;;;;;;;;;;22.71;18.78;97291.06;4951093;29;1066;-76
2022/01/30 11:09:46;;;;;;;;;;;;;;;22.07;19.42;97282.31;4943703;29;909;-77
2022/01/30 11:12:15;;;;;;;;;;;;;;;21.50;20.38;97264.69;4908181;29;1760;-78
2022/01/30 11:14:53;;;;;;;;;;;;;;;22.19;19.59;97278.63;4905302;29;1919;-77
2022/01/30 11:17:20;;;;;;;;;;;;;;;22.74;18.80;97261.75;4908805;29;958;-77
2022/01/30 11:19:49;;;;;;;;;;;;;;;22.71;18.99;97251.34;4906190;29;961;-77
2022/01/30 11:22:15;;;;;;;;;;;;;;;22.16;19.39;97262.53;4929071;29;1714;-78
2022/01/30 11:24:45;;;;;;;;;;;;;;;22.12;19.50;97249.78;4944567;29;914;-77
2022/01/30 11:27:10;;;;;;;;;;;;;;;22.25;19.64;97248.41;4946147;28;966;-77
2022/01/30 11:29:37;;;;;;;;;;;;;;;22.84;18.97;97249.13;4944440;29;1082;-77
2022/01/30 11:32:04;;;;;;;;;;;;;;;22.58;18.95;97242.19;4945866;29;1707;-77
2022/01/30 11:34:30;;;;;;;;;;;;;;;22.15;19.72;97241.13;4943849;28;1977;-77
2022/01/30 11:36:55;;;;;;;;;;;;;;;22.03;19.56;97225.81;5004567;28;936;-78
2022/01/30 11:39:21;;;;;;;;;;;;;;;22.69;18.98;97228.34;5003058;28;905;-76
2022/01/30 11:42:04;;;;;;;;;;;;;;;23.05;18.60;97218.28;5014155;28;1677;-77
2022/01/30 11:44:29;;;;;;;;;;;;;;;22.39;19.02;97209.41;5081238;28;935;-77
2022/01/30 11:47:04;;;;;;;;;;;;;;;22.05;19.44;97211.16;5083158;28;1090;-77
2022/01/30 11:49:42;;;;;;;;;;;;;;;22.28;19.67;97213.47;5081405;28;969;-76
2022/01/30 11:52:11;;;;;;;;;;;;;;;22.74;19.07;97209.91;5069296;28;1711;-77
2022/01/30 11:54:42;;;;;;;;;;;;;;;22.41;19.27;97204.06;5060016;28;1910;-77
2022/01/30 11:57:29;;;;;;;;;;;;;;;22.19;19.52;97193.63;5062881;28;865;-77
2022/01/30 11:59:55;;;;;;;;;;;;;;;22.20;19.47;97200.84;4982047;28;1074;-78
2022/01/30 12:02:21;;;;;;;;;;;;;;;22.50;19.42;97195.56;4968789;28;1695;-77
2022/01/30 12:04:54;;;;;;;;;;;;;;;22.92;18.94;97197.81;4961578;28;1041;-77
2022/01/30 12:07:38;;;;;;;;;;;;;;;22.43;19.07;97193.00;4965516;28;1784;-78
2022/01/30 12:10:19;;;;;;;;;;;;;;;22.15;19.53;97181.63;4943295;29;1025;-78
2022/01/30 12:12:47;;;;;;;;;;;;;;;22.08;19.60;97184.75;4944595;29;989;-78
2022/01/30 12:15:31;;;;;;;;;;;;;;;22.50;19.44;97195.56;4943442;29;1974;-76
2022/01/30 12:17:56;;;;;;;;;;;;;;;22.94;18.61;97178.25;4953316;29;1712;-78
2022/01/30 12:20:22;;;;;;;;;;;;;;;22.65;18.87;97181.56;4963171;29;1052;-77
2022/01/30 12:22:48;;;;;;;;;;;;;;;22.40;19.55;97174.13;4963653;29;1021;-77
2022/01/30 12:25:20;;;;;;;;;;;;;;;22.17;19.42;97179.09;4963424;29;1131;-77
2022/01/30 12:27:49;;;;;;;;;;;;;;;22.50;19.43;97172.88;4963325;29;1743;-77
2022/01/30 12:30:30;;;;;;;;;;;;;;;22.83;18.65;97156.81;4930537;29;1736;-77
2022/01/30 12:32:56;;;;;;;;;;;;;;;22.51;18.93;97152.56;4962828;29;998;-77
2022/01/30 12:35:22;;;;;;;;;;;;;;;22.17;19.64;97147.94;4963511;29;1962;-77
2022/01/30 12:37:47;;;;;;;;;;;;;;;21.36;20.59;97132.25;4976481;28;1655;-77
2022/01/30 12:40:16;;;;;;;;;;;;;;;22.19;19.92;97125.63;4984518;28;985;-77
2022/01/30 12:42:42;;;;;;;;;;;;;;;23.09;18.75;97105.41;5001171;28;1002;-78
2022/01/30 12:45:14;;;;;;;;;;;;;;;22.42;19.41;97117.75;5000554;28;945;-77
2022/01/30 12:47:46;;;;;;;;;;;;;;;21.40;20.46;97111.06;5008971;28;1657;-76
2022/01/30 12:50:12;;;;;;;;;;;;;;;22.63;19.36;97105.47;5020592;28;1008;-78
2022/01/30 12:52:37;;;;;;;;;;;;;;;22.93;19.08;97102.94;5021208;28;884;-77
2022/01/30 12:55:09;;;;;;;;;;;;;;;22.59;19.27;97108.47;5020343;28;1894;-78
2022/01/30 12:57:35;;;;;;;;;;;;;;;22.25;19.75;97112.38;5023867;28;1654;-78
2022/01/30 13:00:01;;;;;;;;;;;;;;;22.39;19.74;97110.22;5019346;28;1721;-77
2022/01/30 13:02:28;;;;;;;;;;;;;;;22.78;19.16;97102.75;5042109;28;959;-77
2022/01/30 13:05:03;;;;;;;;;;;;;;;22.71;19.13;97091.75;5023415;28;1093;-78
2022/01/30 13:07:28;;;;;;;;;;;;;;;22.41;19.54;97087.84;5039393;28;1799;-78
2022/01/30 13:10:09;;;;;;;;;;;;;;;22.13;19.75;97082.16;5068151;28;1710;-78
2022/01/30 13:12:34;;;;;;;;;;;;;;;22.38;19.62;97080.25;5084234;28;997;-77
2022/01/30 13:15:04;;;;;;;;;;;;;;;22.71;19.27;97067.03;5081651;28;1905;-77
2022/01/30 13:17:29;;;;;;;;;;;;;;;22.74;19.10;97068.91;5080701;28;1763;-77
2022/01/30 13:19:55;;;;;;;;;;;;;;;22.40;19.51;97064.38;5073296;28;1670;-77
2022/01/30 13:22:33;;;;;;;;;;;;;;;22.17;19.68;97060.09;5082921;28;871;-77
2022/01/30 13:24:59;;;;;;;;;;;;;;;22.39;19.73;97059.97;5038790;28;1000;-76
2022/01/30 13:27:24;;;;;;;;;;;;;;;22.70;19.04;97061.84;5040102;28;1681;-77
2022/01/30 13:29:53;;;;;;;;;;;;;;;22.74;19.01;97057.56;5032682;28;1708;-77
2022/01/30 13:32:19;;;;;;;;;;;;;;;22.31;19.73;97053.03;5041900;28;1184;-77
2022/01/30 13:34:46;;;;;;;;;;;;;;;22.18;19.74;97056.03;5038838;28;1979;-78
2022/01/30 13:37:14;;;;;;;;;;;;;;;22.27;19.61;97058.06;5025623;28;1808;-77
2022/01/30 13:45:04;;;;;;;;;;;;;;;22.31;19.66;97059.50;5019191;28;967;-77
2022/01/30 13:47:30;;;;;;;;;;;;;;;22.14;19.82;97048.94;5023065;28;1755;-76
2022/01/30 13:49:55;;;;;;;;;;;;;;;22.30;19.64;97046.59;5039320;28;1064;-77
2022/01/30 13:52:21;;;;;;;;;;;;;;;22.67;19.28;97032.38;5041736;28;1176;-77
2022/01/30 13:54:58;;;;;;;;;;;;;;;22.75;18.83;97035.66;5040671;28;1887;-77
2022/01/30 13:57:28;;;;;;;;;;;;;;;22.46;19.43;97030.50;5083123;28;1650;-77
2022/01/30 14:00:02;;;;;;;;;;;;;;;22.16;19.60;97038.72;5081590;28;832;-77
2022/01/30 14:02:29;;;;;;;;;;;;;;;22.43;19.70;97045.63;5041232;28;910;-77
2022/01/30 14:04:55;;;;;;;;;;;;;;;22.60;19.20;97029.88;4989713;28;938;-77
2022/01/30 14:07:21;;;;;;;;;;;;;;;22.57;19.18;97025.91;5039871;28;1772;-77
2022/01/30 14:09:51;;;;;;;;;;;;;;;22.17;19.55;97025.31;4983405;28;936;-77
2022/01/30 14:12:17;;;;;;;;;;;;;;;22.25;19.61;97030.22;4981746;28;1104;-77